sensor_id;sensor_type;location;lat;lon;timestamp;temperature;humidity
19164;DHT22;9714;51.208;4.242;2023-02-20T00:01:57;7.10;99.90
19164;DHT22;9714;51.208;4.242;2023-02-20T00:04:25;7.20;99.90
19164;DHT22;9714;51.208;4.242;2023-02-20T00:06:52;7.20;99.90
19164;DHT22;9714;51.208;4.242;2023-02-20T00:09:19;7.20;99.90
19164;DHT22;9714;51.208;4.242;2023-02-20T00:11:49;7.20;99.90
19164;DHT22;9714;51.208;4.242;2023-02-20T00:14:16;7.30;99.90
19164;DHT22;9714;51.208;4.242;2023-02-20T00:16:45;7.20;99.90
19164;DHT22;9714;51.208;4.242;2023-02-20T00:19:12;7.00;99.90
19164;DHT22;9714;51.208;4.242;2023-02-20T00:21:44;6.90;99.90
19164;DHT22;9714;51.208;4.242;2023-02-20T00:24:11;6.90;99.90
19164;DHT22;9714;51.208;4.242;2023-02-20T00:26:38;7.00;99.90
19164;DHT22;9714;51.208;4.242;2023-02-20T00:29:06;7.00;99.90
19164;DHT22;9714;51.208;4.242;2023-02-20T00:31:33;7.00;99.90
19164;DHT22;9714;51.208;4.242;2023-02-20T00:34:00;6.90;99.90
19164;DHT22;9714;51.208;4.242;2023-02-20T00:36:28;7.00;99.90
19164;DHT22;9714;51.208;4.242;2023-02-20T00:38:55;7.10;99.90
19164;DHT22;9714;51.208;4.242;2023-02-20T00:41:22;7.20;99.90
19164;DHT22;9714;51.208;4.242;2023-02-20T00:43:49;7.40;99.90
19164;DHT22;9714;51.208;4.242;2023-02-20T00:46:18;7.40;99.90
19164;DHT22;9714;51.208;4.242;2023-02-20T00:48:45;7.50;99.90
19164;DHT22;9714;51.208;4.242;2023-02-20T00:51:14;7.40;99.90
19164;DHT22;9714;51.208;4.242;2023-02-20T00:53:41;7.40;99.90
19164;DHT22;9714;51.208;4.242;2023-02-20T00:56:08;7.40;99.90
19164;DHT22;9714;51.208;4.242;2023-02-20T00:58:35;7.30;99.90
19164;DHT22;9714;51.208;4.242;2023-02-20T01:01:02;7.40;99.90
19164;DHT22;9714;51.208;4.242;2023-02-20T01:03:31;7.40;99.90
19164;DHT22;9714;51.208;4.242;2023-02-20T01:05:58;7.50;99.90
19164;DHT22;9714;51.208;4.242;2023-02-20T01:08:25;7.50;99.90
19164;DHT22;9714;51.208;4.242;2023-02-20T01:10:53;7.50;99.90
19164;DHT22;9714;51.208;4.242;2023-02-20T01:13:20;7.40;99.90
19164;DHT22;9714;51.208;4.242;2023-02-20T01:15:48;7.40;99.90
19164;DHT22;9714;51.208;4.242;2023-02-20T01:18:15;7.40;99.90
19164;DHT22;9714;51.208;4.242;2023-02-20T01:20:43;7.40;99.90
19164;DHT22;9714;51.208;4.242;2023-02-20T01:23:10;7.40;99.90
19164;DHT22;9714;51.208;4.242;2023-02-20T01:25:37;7.30;99.90
19164;DHT22;9714;51.208;4.242;2023-02-20T01:28:04;7.50;99.90
19164;DHT22;9714;51.208;4.242;2023-02-20T01:30:31;7.50;99.90
19164;DHT22;9714;51.208;4.242;2023-02-20T01:32:58;7.40;99.90
19164;DHT22;9714;51.208;4.242;2023-02-20T01:35:26;7.50;99.90
19164;DHT22;9714;51.208;4.242;2023-02-20T01:37:58;7.50;99.90
19164;DHT22;9714;51.208;4.242;2023-02-20T01:40:26;7.60;99.90
19164;DHT22;9714;51.208;4.242;2023-02-20T01:42:53;7.50;99.90
19164;DHT22;9714;51.208;4.242;2023-02-20T01:45:34;7.60;99.90
19164;DHT22;9714;51.208;4.242;2023-02-20T01:48:03;7.70;99.90
19164;DHT22;9714;51.208;4.242;2023-02-20T01:50:34;7.80;99.90
19164;DHT22;9714;51.208;4.242;2023-02-20T01:53:10;7.80;99.90
19164;DHT22;9714;51.208;4.242;2023-02-20T01:55:42;7.70;99.90
19164;DHT22;9714;51.208;4.242;2023-02-20T01:58:14;7.80;99.90
19164;DHT22;9714;51.208;4.242;2023-02-20T02:00:43;7.80;99.90
19164;DHT22;9714;51.208;4.242;2023-02-20T02:03:12;7.80;99.90
19164;DHT22;9714;51.208;4.242;2023-02-20T02:05:42;7.80;99.90
19164;DHT22;9714;51.208;4.242;2023-02-20T02:08:13;7.70;99.90
19164;DHT22;9714;51.208;4.242;2023-02-20T02:10:48;7.70;99.90
19164;DHT22;9714;51.208;4.242;2023-02-20T02:13:17;7.90;99.90
19164;DHT22;9714;51.208;4.242;2023-02-20T02:15:44;7.90;99.90
19164;DHT22;9714;51.208;4.242;2023-02-20T02:18:27;7.90;99.90
19164;DHT22;9714;51.208;4.242;2023-02-20T02:30:39;7.60;99.90
19164;DHT22;9714;51.208;4.242;2023-02-20T02:36:52;7.70;99.90
19164;DHT22;9714;51.208;4.242;2023-02-20T02:39:28;7.50;99.90
19164;DHT22;9714;51.208;4.242;2023-02-20T02:42:07;7.60;99.90
19164;DHT22;9714;51.208;4.242;2023-02-20T02:44:41;7.60;99.90
19164;DHT22;9714;51.208;4.242;2023-02-20T02:47:12;7.60;99.90
19164;DHT22;9714;51.208;4.242;2023-02-20T02:49:48;7.60;99.90
19164;DHT22;9714;51.208;4.242;2023-02-20T02:52:18;7.70;99.90
19164;DHT22;9714;51.208;4.242;2023-02-20T02:55:03;7.70;99.90
19164;DHT22;9714;51.208;4.242;2023-02-20T02:57:30;7.60;99.90
19164;DHT22;9714;51.208;4.242;2023-02-20T03:00:00;7.60;99.90
19164;DHT22;9714;51.208;4.242;2023-02-20T03:02:32;7.60;99.90
19164;DHT22;9714;51.208;4.242;2023-02-20T03:05:00;7.70;99.90
19164;DHT22;9714;51.208;4.242;2023-02-20T03:07:31;7.60;99.90
19164;DHT22;9714;51.208;4.242;2023-02-20T03:10:05;7.80;99.90
19164;DHT22;9714;51.208;4.242;2023-02-20T03:12:37;7.90;99.90
19164;DHT22;9714;51.208;4.242;2023-02-20T03:15:12;7.90;99.90
19164;DHT22;9714;51.208;4.242;2023-02-20T03:18:16;8.00;99.90
19164;DHT22;9714;51.208;4.242;2023-02-20T03:20:47;8.00;99.90
19164;DHT22;9714;51.208;4.242;2023-02-20T03:23:19;8.00;99.90
19164;DHT22;9714;51.208;4.242;2023-02-20T03:25:52;8.10;99.90
19164;DHT22;9714;51.208;4.242;2023-02-20T03:28:22;8.10;99.90
19164;DHT22;9714;51.208;4.242;2023-02-20T03:30:54;8.10;99.90
19164;DHT22;9714;51.208;4.242;2023-02-20T03:33:26;8.10;99.90
19164;DHT22;9714;51.208;4.242;2023-02-20T03:36:21;8.10;99.90
19164;DHT22;9714;51.208;4.242;2023-02-20T03:39:12;8.10;99.90
19164;DHT22;9714;51.208;4.242;2023-02-20T03:41:59;8.10;99.90
19164;DHT22;9714;51.208;4.242;2023-02-20T03:44:44;8.10;99.90
19164;DHT22;9714;51.208;4.242;2023-02-20T03:47:14;8.20;99.90
19164;DHT22;9714;51.208;4.242;2023-02-20T03:49:45;8.20;99.90
19164;DHT22;9714;51.208;4.242;2023-02-20T03:52:14;8.10;99.90
19164;DHT22;9714;51.208;4.242;2023-02-20T03:54:43;8.20;99.90
19164;DHT22;9714;51.208;4.242;2023-02-20T03:57:13;8.10;99.90
19164;DHT22;9714;51.208;4.242;2023-02-20T03:59:44;8.20;99.90
19164;DHT22;9714;51.208;4.242;2023-02-20T04:02:16;8.10;99.90
19164;DHT22;9714;51.208;4.242;2023-02-20T04:04:47;8.20;99.90
19164;DHT22;9714;51.208;4.242;2023-02-20T04:07:18;8.30;99.90
19164;DHT22;9714;51.208;4.242;2023-02-20T04:09:48;8.20;99.90
19164;DHT22;9714;51.208;4.242;2023-02-20T04:12:19;8.30;99.90
19164;DHT22;9714;51.208;4.242;2023-02-20T04:14:49;8.20;99.90
19164;DHT22;9714;51.208;4.242;2023-02-20T04:17:22;8.40;99.90
19164;DHT22;9714;51.208;4.242;2023-02-20T04:19:50;8.30;99.90
19164;DHT22;9714;51.208;4.242;2023-02-20T04:22:21;8.30;99.90
19164;DHT22;9714;51.208;4.242;2023-02-20T04:24:55;8.30;99.90
19164;DHT22;9714;51.208;4.242;2023-02-20T04:27:23;8.30;99.90
19164;DHT22;9714;51.208;4.242;2023-02-20T04:29:51;8.40;99.90
19164;DHT22;9714;51.208;4.242;2023-02-20T04:32:18;8.50;99.90
19164;DHT22;9714;51.208;4.242;2023-02-20T04:34:45;8.50;99.90
19164;DHT22;9714;51.208;4.242;2023-02-20T04:37:14;8.50;99.90
19164;DHT22;9714;51.208;4.242;2023-02-20T04:39:41;8.50;99.90
19164;DHT22;9714;51.208;4.242;2023-02-20T04:42:10;8.40;99.90
19164;DHT22;9714;51.208;4.242;2023-02-20T04:44:38;8.40;99.90
19164;DHT22;9714;51.208;4.242;2023-02-20T04:47:10;8.40;99.90
19164;DHT22;9714;51.208;4.242;2023-02-20T04:49:39;8.40;99.90
19164;DHT22;9714;51.208;4.242;2023-02-20T04:52:07;8.50;99.90
19164;DHT22;9714;51.208;4.242;2023-02-20T04:54:34;8.50;99.90
19164;DHT22;9714;51.208;4.242;2023-02-20T04:57:01;8.30;99.90
19164;DHT22;9714;51.208;4.242;2023-02-20T04:59:29;8.30;99.90
19164;DHT22;9714;51.208;4.242;2023-02-20T05:01:57;8.40;99.90
19164;DHT22;9714;51.208;4.242;2023-02-20T05:04:27;8.50;99.90
19164;DHT22;9714;51.208;4.242;2023-02-20T05:06:54;8.50;99.90
19164;DHT22;9714;51.208;4.242;2023-02-20T05:09:22;8.40;99.90
19164;DHT22;9714;51.208;4.242;2023-02-20T05:11:51;8.40;99.90
19164;DHT22;9714;51.208;4.242;2023-02-20T05:14:18;8.30;99.90
19164;DHT22;9714;51.208;4.242;2023-02-20T05:16:47;8.30;99.90
19164;DHT22;9714;51.208;4.242;2023-02-20T05:19:16;8.40;99.90
19164;DHT22;9714;51.208;4.242;2023-02-20T05:21:44;8.40;99.90
19164;DHT22;9714;51.208;4.242;2023-02-20T05:24:28;8.40;99.90
19164;DHT22;9714;51.208;4.242;2023-02-20T05:26:57;8.40;99.90
19164;DHT22;9714;51.208;4.242;2023-02-20T05:29:24;8.40;99.90
19164;DHT22;9714;51.208;4.242;2023-02-20T05:31:52;8.40;99.90
19164;DHT22;9714;51.208;4.242;2023-02-20T05:34:19;8.40;99.90
19164;DHT22;9714;51.208;4.242;2023-02-20T05:36:47;8.60;99.90
19164;DHT22;9714;51.208;4.242;2023-02-20T05:39:14;8.50;99.90
19164;DHT22;9714;51.208;4.242;2023-02-20T05:41:41;8.50;99.90
19164;DHT22;9714;51.208;4.242;2023-02-20T05:44:08;8.50;99.90
19164;DHT22;9714;51.208;4.242;2023-02-20T05:46:39;8.50;99.90
19164;DHT22;9714;51.208;4.242;2023-02-20T05:49:08;8.40;99.90
19164;DHT22;9714;51.208;4.242;2023-02-20T05:51:36;8.50;99.90
19164;DHT22;9714;51.208;4.242;2023-02-20T05:54:03;8.50;99.90
19164;DHT22;9714;51.208;4.242;2023-02-20T05:56:31;8.70;99.90
19164;DHT22;9714;51.208;4.242;2023-02-20T05:58:59;8.60;99.90
19164;DHT22;9714;51.208;4.242;2023-02-20T06:01:29;8.60;99.90
19164;DHT22;9714;51.208;4.242;2023-02-20T06:03:57;8.60;99.90
19164;DHT22;9714;51.208;4.242;2023-02-20T06:06:32;8.50;99.90
19164;DHT22;9714;51.208;4.242;2023-02-20T06:09:00;8.50;99.90
19164;DHT22;9714;51.208;4.242;2023-02-20T06:11:27;8.40;99.90
19164;DHT22;9714;51.208;4.242;2023-02-20T06:13:54;8.50;99.90
19164;DHT22;9714;51.208;4.242;2023-02-20T06:16:22;8.50;99.90
19164;DHT22;9714;51.208;4.242;2023-02-20T06:18:50;8.50;99.90
19164;DHT22;9714;51.208;4.242;2023-02-20T06:21:18;8.60;99.90
19164;DHT22;9714;51.208;4.242;2023-02-20T06:23:50;8.70;99.90
19164;DHT22;9714;51.208;4.242;2023-02-20T06:26:18;8.70;99.90
19164;DHT22;9714;51.208;4.242;2023-02-20T06:28:46;8.80;99.90
19164;DHT22;9714;51.208;4.242;2023-02-20T06:31:21;8.80;99.90
19164;DHT22;9714;51.208;4.242;2023-02-20T06:33:49;8.80;99.90
19164;DHT22;9714;51.208;4.242;2023-02-20T06:36:20;8.90;99.90
19164;DHT22;9714;51.208;4.242;2023-02-20T06:38:50;8.80;99.90
19164;DHT22;9714;51.208;4.242;2023-02-20T06:41:18;8.90;99.90
19164;DHT22;9714;51.208;4.242;2023-02-20T06:43:45;8.80;99.90
19164;DHT22;9714;51.208;4.242;2023-02-20T06:46:13;8.80;99.90
19164;DHT22;9714;51.208;4.242;2023-02-20T06:48:44;8.70;99.90
19164;DHT22;9714;51.208;4.242;2023-02-20T06:51:12;8.70;99.90
19164;DHT22;9714;51.208;4.242;2023-02-20T06:53:39;8.90;99.90
19164;DHT22;9714;51.208;4.242;2023-02-20T06:56:10;8.90;99.90
19164;DHT22;9714;51.208;4.242;2023-02-20T06:58:37;8.80;99.90
19164;DHT22;9714;51.208;4.242;2023-02-20T07:01:04;8.90;99.90
19164;DHT22;9714;51.208;4.242;2023-02-20T07:03:31;8.80;99.90
19164;DHT22;9714;51.208;4.242;2023-02-20T07:05:59;8.90;99.90
19164;DHT22;9714;51.208;4.242;2023-02-20T07:08:26;8.80;99.90
19164;DHT22;9714;51.208;4.242;2023-02-20T07:10:53;8.80;99.90
19164;DHT22;9714;51.208;4.242;2023-02-20T07:13:22;8.80;99.90
19164;DHT22;9714;51.208;4.242;2023-02-20T07:15:49;8.90;99.90
19164;DHT22;9714;51.208;4.242;2023-02-20T07:18:17;8.90;99.90
19164;DHT22;9714;51.208;4.242;2023-02-20T07:20:46;9.00;99.90
19164;DHT22;9714;51.208;4.242;2023-02-20T07:23:13;8.90;99.90
19164;DHT22;9714;51.208;4.242;2023-02-20T07:25:40;8.90;99.90
19164;DHT22;9714;51.208;4.242;2023-02-20T07:28:08;8.90;99.90
19164;DHT22;9714;51.208;4.242;2023-02-20T07:30:36;8.90;99.90
19164;DHT22;9714;51.208;4.242;2023-02-20T07:33:03;8.90;99.90
19164;DHT22;9714;51.208;4.242;2023-02-20T07:35:31;8.90;99.90
19164;DHT22;9714;51.208;4.242;2023-02-20T07:37:58;8.90;99.90
19164;DHT22;9714;51.208;4.242;2023-02-20T07:40:26;9.00;99.90
19164;DHT22;9714;51.208;4.242;2023-02-20T07:42:55;9.10;99.90
19164;DHT22;9714;51.208;4.242;2023-02-20T07:45:25;9.20;99.90
19164;DHT22;9714;51.208;4.242;2023-02-20T07:47:54;9.10;99.90
19164;DHT22;9714;51.208;4.242;2023-02-20T07:50:22;9.20;99.90
19164;DHT22;9714;51.208;4.242;2023-02-20T07:52:49;9.10;99.90
19164;DHT22;9714;51.208;4.242;2023-02-20T07:55:17;9.20;99.90
19164;DHT22;9714;51.208;4.242;2023-02-20T07:57:47;9.10;99.90
19164;DHT22;9714;51.208;4.242;2023-02-20T08:00:17;9.10;99.90
19164;DHT22;9714;51.208;4.242;2023-02-20T08:02:45;9.20;99.90
19164;DHT22;9714;51.208;4.242;2023-02-20T08:05:14;9.30;99.90
19164;DHT22;9714;51.208;4.242;2023-02-20T08:07:44;9.30;99.90
19164;DHT22;9714;51.208;4.242;2023-02-20T08:10:13;9.20;99.90
19164;DHT22;9714;51.208;4.242;2023-02-20T08:12:41;9.10;99.90
19164;DHT22;9714;51.208;4.242;2023-02-20T08:15:09;9.00;99.90
19164;DHT22;9714;51.208;4.242;2023-02-20T08:17:38;9.20;99.90
19164;DHT22;9714;51.208;4.242;2023-02-20T08:20:07;9.30;99.90
19164;DHT22;9714;51.208;4.242;2023-02-20T08:22:37;9.20;99.90
19164;DHT22;9714;51.208;4.242;2023-02-20T08:25:05;9.10;99.90
19164;DHT22;9714;51.208;4.242;2023-02-20T08:27:32;9.20;99.90
19164;DHT22;9714;51.208;4.242;2023-02-20T08:30:03;9.30;99.90
19164;DHT22;9714;51.208;4.242;2023-02-20T08:32:31;9.30;99.90
19164;DHT22;9714;51.208;4.242;2023-02-20T08:34:58;9.30;99.90
19164;DHT22;9714;51.208;4.242;2023-02-20T08:37:25;9.20;99.90
19164;DHT22;9714;51.208;4.242;2023-02-20T08:39:55;9.30;99.90
19164;DHT22;9714;51.208;4.242;2023-02-20T08:42:23;9.30;99.90
19164;DHT22;9714;51.208;4.242;2023-02-20T08:44:50;9.40;99.90
19164;DHT22;9714;51.208;4.242;2023-02-20T08:47:20;9.50;99.90
19164;DHT22;9714;51.208;4.242;2023-02-20T08:49:48;9.60;99.90
19164;DHT22;9714;51.208;4.242;2023-02-20T08:52:16;9.40;99.90
19164;DHT22;9714;51.208;4.242;2023-02-20T08:54:44;9.40;99.90
19164;DHT22;9714;51.208;4.242;2023-02-20T08:57:13;9.50;99.90
19164;DHT22;9714;51.208;4.242;2023-02-20T08:59:41;9.40;99.90
19164;DHT22;9714;51.208;4.242;2023-02-20T09:02:15;9.40;99.90
19164;DHT22;9714;51.208;4.242;2023-02-20T09:04:43;9.60;99.90
19164;DHT22;9714;51.208;4.242;2023-02-20T09:07:11;9.60;99.90
19164;DHT22;9714;51.208;4.242;2023-02-20T09:09:39;9.40;99.90
19164;DHT22;9714;51.208;4.242;2023-02-20T09:12:07;9.50;99.90
19164;DHT22;9714;51.208;4.242;2023-02-20T09:14:37;9.60;99.90
19164;DHT22;9714;51.208;4.242;2023-02-20T09:17:05;9.60;99.90
19164;DHT22;9714;51.208;4.242;2023-02-20T09:19:32;9.70;99.90
19164;DHT22;9714;51.208;4.242;2023-02-20T09:21:59;9.70;99.90
19164;DHT22;9714;51.208;4.242;2023-02-20T09:24:30;9.80;99.90
19164;DHT22;9714;51.208;4.242;2023-02-20T09:26:59;9.70;99.90
19164;DHT22;9714;51.208;4.242;2023-02-20T09:29:27;9.80;99.90
19164;DHT22;9714;51.208;4.242;2023-02-20T09:31:56;9.80;99.90
19164;DHT22;9714;51.208;4.242;2023-02-20T09:34:23;9.70;99.90
19164;DHT22;9714;51.208;4.242;2023-02-20T09:36:51;9.70;99.90
19164;DHT22;9714;51.208;4.242;2023-02-20T09:39:19;9.70;99.90
19164;DHT22;9714;51.208;4.242;2023-02-20T09:41:58;9.80;99.90
19164;DHT22;9714;51.208;4.242;2023-02-20T09:44:33;9.90;99.90
19164;DHT22;9714;51.208;4.242;2023-02-20T09:47:11;10.00;99.90
19164;DHT22;9714;51.208;4.242;2023-02-20T09:49:45;10.00;99.90
19164;DHT22;9714;51.208;4.242;2023-02-20T09:52:14;10.10;99.90
19164;DHT22;9714;51.208;4.242;2023-02-20T09:54:45;10.10;99.90
19164;DHT22;9714;51.208;4.242;2023-02-20T09:57:18;10.00;99.90
19164;DHT22;9714;51.208;4.242;2023-02-20T09:59:50;10.00;99.90
19164;DHT22;9714;51.208;4.242;2023-02-20T10:02:23;9.90;99.90
19164;DHT22;9714;51.208;4.242;2023-02-20T10:04:55;10.10;99.90
19164;DHT22;9714;51.208;4.242;2023-02-20T10:07:29;10.20;99.90
19164;DHT22;9714;51.208;4.242;2023-02-20T10:09:58;10.10;99.90
19164;DHT22;9714;51.208;4.242;2023-02-20T10:12:31;10.10;99.90
19164;DHT22;9714;51.208;4.242;2023-02-20T10:15:11;10.00;99.90
19164;DHT22;9714;51.208;4.242;2023-02-20T10:17:51;10.00;99.90
19164;DHT22;9714;51.208;4.242;2023-02-20T10:20:25;10.00;99.90
19164;DHT22;9714;51.208;4.242;2023-02-20T10:23:02;10.10;99.90
19164;DHT22;9714;51.208;4.242;2023-02-20T10:25:34;10.20;99.90
19164;DHT22;9714;51.208;4.242;2023-02-20T10:28:06;10.10;99.90
19164;DHT22;9714;51.208;4.242;2023-02-20T10:30:38;10.00;99.90
19164;DHT22;9714;51.208;4.242;2023-02-20T10:33:22;10.10;99.90
19164;DHT22;9714;51.208;4.242;2023-02-20T10:35:54;10.20;99.90
19164;DHT22;9714;51.208;4.242;2023-02-20T10:38:26;10.30;99.90
19164;DHT22;9714;51.208;4.242;2023-02-20T10:41:01;10.20;99.90
19164;DHT22;9714;51.208;4.242;2023-02-20T10:43:35;10.30;99.90
19164;DHT22;9714;51.208;4.242;2023-02-20T10:46:08;10.30;99.90
19164;DHT22;9714;51.208;4.242;2023-02-20T10:48:40;10.30;99.90
19164;DHT22;9714;51.208;4.242;2023-02-20T10:51:12;10.40;99.90
19164;DHT22;9714;51.208;4.242;2023-02-20T10:53:46;10.30;99.90
19164;DHT22;9714;51.208;4.242;2023-02-20T10:56:18;10.30;99.90
19164;DHT22;9714;51.208;4.242;2023-02-20T10:58:54;10.20;99.90
19164;DHT22;9714;51.208;4.242;2023-02-20T11:01:25;10.20;99.90
19164;DHT22;9714;51.208;4.242;2023-02-20T11:04:00;10.30;99.90
19164;DHT22;9714;51.208;4.242;2023-02-20T11:06:31;10.50;99.90
19164;DHT22;9714;51.208;4.242;2023-02-20T11:09:01;10.60;99.90
19164;DHT22;9714;51.208;4.242;2023-02-20T11:11:31;10.60;99.90
19164;DHT22;9714;51.208;4.242;2023-02-20T11:14:00;10.40;99.90
19164;DHT22;9714;51.208;4.242;2023-02-20T11:16:31;10.40;99.90
19164;DHT22;9714;51.208;4.242;2023-02-20T11:21:56;10.40;99.90
19164;DHT22;9714;51.208;4.242;2023-02-20T11:24:30;10.30;99.90
19164;DHT22;9714;51.208;4.242;2023-02-20T11:27:01;10.20;99.90
19164;DHT22;9714;51.208;4.242;2023-02-20T11:29:33;10.30;99.90
19164;DHT22;9714;51.208;4.242;2023-02-20T11:32:24;10.50;99.90
19164;DHT22;9714;51.208;4.242;2023-02-20T11:35:23;10.40;99.90
19164;DHT22;9714;51.208;4.242;2023-02-20T11:38:22;10.60;99.90
19164;DHT22;9714;51.208;4.242;2023-02-20T11:41:01;10.60;99.90
19164;DHT22;9714;51.208;4.242;2023-02-20T11:43:31;10.60;99.90
19164;DHT22;9714;51.208;4.242;2023-02-20T11:46:07;10.50;99.90
19164;DHT22;9714;51.208;4.242;2023-02-20T11:48:35;10.60;99.90
19164;DHT22;9714;51.208;4.242;2023-02-20T11:51:02;10.60;99.90
19164;DHT22;9714;51.208;4.242;2023-02-20T11:53:32;10.80;99.90
19164;DHT22;9714;51.208;4.242;2023-02-20T11:56:09;10.60;99.90
19164;DHT22;9714;51.208;4.242;2023-02-20T11:58:37;10.40;99.90
19164;DHT22;9714;51.208;4.242;2023-02-20T12:01:05;10.50;99.90
19164;DHT22;9714;51.208;4.242;2023-02-20T12:03:33;10.50;99.90
19164;DHT22;9714;51.208;4.242;2023-02-20T12:06:26;10.60;99.90
19164;DHT22;9714;51.208;4.242;2023-02-20T12:08:53;10.60;99.90
19164;DHT22;9714;51.208;4.242;2023-02-20T12:11:24;10.70;99.90
19164;DHT22;9714;51.208;4.242;2023-02-20T12:13:53;10.80;99.90
19164;DHT22;9714;51.208;4.242;2023-02-20T12:16:31;10.90;99.90
19164;DHT22;9714;51.208;4.242;2023-02-20T12:19:06;10.90;99.90
19164;DHT22;9714;51.208;4.242;2023-02-20T12:21:42;11.00;99.90
19164;DHT22;9714;51.208;4.242;2023-02-20T12:24:26;11.00;99.90
19164;DHT22;9714;51.208;4.242;2023-02-20T12:26:58;11.10;99.90
19164;DHT22;9714;51.208;4.242;2023-02-20T12:29:40;11.20;99.90
19164;DHT22;9714;51.208;4.242;2023-02-20T12:32:21;11.20;99.90
19164;DHT22;9714;51.208;4.242;2023-02-20T12:35:05;11.30;99.90
19164;DHT22;9714;51.208;4.242;2023-02-20T12:37:46;11.10;99.90
19164;DHT22;9714;51.208;4.242;2023-02-20T12:40:35;11.10;99.90
19164;DHT22;9714;51.208;4.242;2023-02-20T12:43:14;11.20;99.90
19164;DHT22;9714;51.208;4.242;2023-02-20T12:45:51;11.20;99.90
19164;DHT22;9714;51.208;4.242;2023-02-20T12:48:30;11.10;99.90
19164;DHT22;9714;51.208;4.242;2023-02-20T12:51:11;11.20;99.90
19164;DHT22;9714;51.208;4.242;2023-02-20T12:56:52;11.40;99.90
19164;DHT22;9714;51.208;4.242;2023-02-20T12:59:25;11.20;99.90
19164;DHT22;9714;51.208;4.242;2023-02-20T13:01:54;11.10;99.90
19164;DHT22;9714;51.208;4.242;2023-02-20T13:04:29;11.20;99.90
19164;DHT22;9714;51.208;4.242;2023-02-20T13:07:04;11.30;99.90
19164;DHT22;9714;51.208;4.242;2023-02-20T13:09:36;11.20;99.90
19164;DHT22;9714;51.208;4.242;2023-02-20T13:12:10;11.00;99.90
19164;DHT22;9714;51.208;4.242;2023-02-20T13:14:54;11.10;99.90
19164;DHT22;9714;51.208;4.242;2023-02-20T13:17:31;11.20;99.90
19164;DHT22;9714;51.208;4.242;2023-02-20T13:20:05;11.10;99.90
19164;DHT22;9714;51.208;4.242;2023-02-20T13:22:36;11.10;99.90
19164;DHT22;9714;51.208;4.242;2023-02-20T13:25:35;11.00;99.90
19164;DHT22;9714;51.208;4.242;2023-02-20T13:28:21;11.20;99.90
19164;DHT22;9714;51.208;4.242;2023-02-20T13:31:11;11.20;99.90
19164;DHT22;9714;51.208;4.242;2023-02-20T13:33:40;11.20;99.90
19164;DHT22;9714;51.208;4.242;2023-02-20T13:42:32;11.30;99.90
19164;DHT22;9714;51.208;4.242;2023-02-20T13:45:01;11.40;99.90
19164;DHT22;9714;51.208;4.242;2023-02-20T13:47:34;11.50;99.90
19164;DHT22;9714;51.208;4.242;2023-02-20T13:50:31;11.60;99.90
19164;DHT22;9714;51.208;4.242;2023-02-20T13:53:03;11.50;99.90
19164;DHT22;9714;51.208;4.242;2023-02-20T13:55:32;11.40;99.90
19164;DHT22;9714;51.208;4.242;2023-02-20T13:58:12;11.30;99.90
19164;DHT22;9714;51.208;4.242;2023-02-20T14:00:49;11.40;99.90
19164;DHT22;9714;51.208;4.242;2023-02-20T14:03:20;11.30;99.90
19164;DHT22;9714;51.208;4.242;2023-02-20T14:06:06;11.40;99.90
19164;DHT22;9714;51.208;4.242;2023-02-20T14:08:35;11.30;99.90
19164;DHT22;9714;51.208;4.242;2023-02-20T14:11:05;11.40;99.90
19164;DHT22;9714;51.208;4.242;2023-02-20T14:13:34;11.60;99.90
19164;DHT22;9714;51.208;4.242;2023-02-20T14:16:03;11.70;99.90
19164;DHT22;9714;51.208;4.242;2023-02-20T14:18:32;11.90;99.90
19164;DHT22;9714;51.208;4.242;2023-02-20T14:21:08;11.70;99.90
19164;DHT22;9714;51.208;4.242;2023-02-20T14:23:36;11.50;99.90
19164;DHT22;9714;51.208;4.242;2023-02-20T14:26:05;11.60;99.90
19164;DHT22;9714;51.208;4.242;2023-02-20T14:28:33;11.50;99.90
19164;DHT22;9714;51.208;4.242;2023-02-20T14:31:18;11.60;99.90
19164;DHT22;9714;51.208;4.242;2023-02-20T14:33:46;11.60;99.90
19164;DHT22;9714;51.208;4.242;2023-02-20T14:36:34;11.60;99.90
19164;DHT22;9714;51.208;4.242;2023-02-20T14:39:19;11.50;99.90
19164;DHT22;9714;51.208;4.242;2023-02-20T14:41:53;11.60;99.90
19164;DHT22;9714;51.208;4.242;2023-02-20T14:44:24;11.50;99.90
19164;DHT22;9714;51.208;4.242;2023-02-20T14:46:56;11.40;99.90
19164;DHT22;9714;51.208;4.242;2023-02-20T14:49:26;11.50;99.90
19164;DHT22;9714;51.208;4.242;2023-02-20T14:52:16;11.50;99.90
19164;DHT22;9714;51.208;4.242;2023-02-20T14:54:56;11.40;99.90
19164;DHT22;9714;51.208;4.242;2023-02-20T14:57:23;11.40;99.90
19164;DHT22;9714;51.208;4.242;2023-02-20T15:00:05;11.60;99.90
19164;DHT22;9714;51.208;4.242;2023-02-20T15:02:34;11.70;99.90
19164;DHT22;9714;51.208;4.242;2023-02-20T15:05:09;11.80;99.90
19164;DHT22;9714;51.208;4.242;2023-02-20T15:07:38;11.80;99.90
19164;DHT22;9714;51.208;4.242;2023-02-20T15:10:31;11.90;99.90
19164;DHT22;9714;51.208;4.242;2023-02-20T15:13:04;11.90;99.90
19164;DHT22;9714;51.208;4.242;2023-02-20T15:15:38;11.80;99.90
19164;DHT22;9714;51.208;4.242;2023-02-20T15:18:11;11.70;99.90
19164;DHT22;9714;51.208;4.242;2023-02-20T15:20:43;11.50;99.90
19164;DHT22;9714;51.208;4.242;2023-02-20T15:23:24;11.60;99.90
19164;DHT22;9714;51.208;4.242;2023-02-20T15:25:53;11.50;99.90
19164;DHT22;9714;51.208;4.242;2023-02-20T15:28:28;11.50;99.90
19164;DHT22;9714;51.208;4.242;2023-02-20T15:31:19;11.70;99.90
19164;DHT22;9714;51.208;4.242;2023-02-20T15:33:51;11.60;99.90
19164;DHT22;9714;51.208;4.242;2023-02-20T15:36:20;11.50;99.90
19164;DHT22;9714;51.208;4.242;2023-02-20T15:38:49;11.40;99.90
19164;DHT22;9714;51.208;4.242;2023-02-20T15:41:22;11.40;99.90
19164;DHT22;9714;51.208;4.242;2023-02-20T15:43:56;11.50;99.90
19164;DHT22;9714;51.208;4.242;2023-02-20T15:46:25;11.60;99.90
19164;DHT22;9714;51.208;4.242;2023-02-20T15:48:53;11.40;99.90
19164;DHT22;9714;51.208;4.242;2023-02-20T15:51:21;11.40;99.90
19164;DHT22;9714;51.208;4.242;2023-02-20T15:53:50;11.40;99.90
19164;DHT22;9714;51.208;4.242;2023-02-20T15:56:19;11.30;99.90
19164;DHT22;9714;51.208;4.242;2023-02-20T15:58:46;11.30;99.90
19164;DHT22;9714;51.208;4.242;2023-02-20T16:01:15;11.40;99.90
19164;DHT22;9714;51.208;4.242;2023-02-20T16:03:42;11.40;99.90
19164;DHT22;9714;51.208;4.242;2023-02-20T16:06:12;11.40;99.90
19164;DHT22;9714;51.208;4.242;2023-02-20T16:08:39;11.40;99.90
19164;DHT22;9714;51.208;4.242;2023-02-20T16:11:06;11.40;99.90
19164;DHT22;9714;51.208;4.242;2023-02-20T16:13:35;11.30;99.90
19164;DHT22;9714;51.208;4.242;2023-02-20T16:16:20;11.20;99.90
19164;DHT22;9714;51.208;4.242;2023-02-20T16:18:48;11.10;99.90
19164;DHT22;9714;51.208;4.242;2023-02-20T16:21:21;11.30;99.90
19164;DHT22;9714;51.208;4.242;2023-02-20T16:23:48;11.20;99.90
19164;DHT22;9714;51.208;4.242;2023-02-20T16:26:15;11.20;99.90
19164;DHT22;9714;51.208;4.242;2023-02-20T16:28:43;11.10;99.90
19164;DHT22;9714;51.208;4.242;2023-02-20T16:31:11;11.00;99.90
19164;DHT22;9714;51.208;4.242;2023-02-20T16:33:38;11.00;99.90
19164;DHT22;9714;51.208;4.242;2023-02-20T16:36:05;11.00;99.90
19164;DHT22;9714;51.208;4.242;2023-02-20T16:38:34;11.00;99.90
19164;DHT22;9714;51.208;4.242;2023-02-20T16:41:01;11.00;99.90
19164;DHT22;9714;51.208;4.242;2023-02-20T16:43:29;11.00;99.90
19164;DHT22;9714;51.208;4.242;2023-02-20T16:45:57;10.90;99.90
19164;DHT22;9714;51.208;4.242;2023-02-20T16:48:26;11.10;99.90